Time;durP1;ratioP1;P1;durP2;ratioP2;P2;SDS_P1;SDS_P2;PMS_P1;PMS_P2;Temp;Humidity;BMP_temperature;BMP_pressure;BME280_temperature;BME280_humidity;BME280_pressure;Samples;Min_cycle;Max_cycle;Signal;HPM_P1;HPM_P2
2021/12/20 00:01:05;;;;;;;43.50;20.88;;;3.10;99.90;;;;;;5153781;27;20026;-69
2021/12/20 00:03:30;;;;;;;41.15;21.38;;;3.10;99.90;;;;;;5147769;27;20145;-68
2021/12/20 00:05:56;;;;;;;40.30;22.35;;;3.10;99.90;;;;;;5136411;27;20123;-69
2021/12/20 00:08:22;;;;;;;41.08;21.70;;;3.10;99.90;;;;;;5134849;27;20485;-68
2021/12/20 00:10:47;;;;;;;45.42;22.77;;;3.20;99.90;;;;;;5134649;27;20019;-68
2021/12/20 00:13:13;;;;;;;43.35;21.80;;;3.10;99.90;;;;;;5150561;27;20062;-68
2021/12/20 00:15:39;;;;;;;42.05;22.08;;;3.10;99.90;;;;;;5153851;27;20475;-68
2021/12/20 00:18:04;;;;;;;45.05;22.70;;;3.10;99.90;;;;;;5144745;27;20457;-68
2021/12/20 00:20:30;;;;;;;39.67;20.70;;;3.10;99.90;;;;;;5134763;27;20023;-68
2021/12/20 00:22:56;;;;;;;35.85;18.83;;;3.10;99.90;;;;;;5143860;27;20528;-68
2021/12/20 00:25:21;;;;;;;33.53;18.58;;;3.10;99.90;;;;;;5153970;27;20030;-69
2021/12/20 00:27:47;;;;;;;38.25;20.52;;;3.10;99.90;;;;;;5138604;27;20459;-69
2021/12/20 00:30:13;;;;;;;33.15;19.05;;;3.10;99.90;;;;;;5133107;27;20105;-68
2021/12/20 00:32:39;;;;;;;33.63;19.45;;;3.10;99.90;;;;;;5133988;27;20039;-68
2021/12/20 00:35:06;;;;;;;31.95;18.15;;;3.10;99.90;;;;;;5133198;27;20437;-68
2021/12/20 00:40:23;;;;;;;31.42;17.67;;;3.20;99.90;;;;;;5133795;27;20062;-68
2021/12/20 00:42:55;;;;;;;36.30;19.80;;;3.20;99.90;;;;;;5133725;27;20054;-70
2021/12/20 00:45:23;;;;;;;32.92;19.83;;;3.20;99.90;;;;;;5133394;27;20031;-68
2021/12/20 00:47:49;;;;;;;31.83;18.10;;;3.20;99.90;;;;;;5133491;27;20046;-69
2021/12/20 00:50:17;;;;;;;33.63;20.25;;;3.20;99.90;;;;;;5133035;27;20047;-68
2021/12/20 00:52:44;;;;;;;30.45;18.20;;;3.20;99.90;;;;;;5133510;27;20027;-68
2021/12/20 00:55:12;;;;;;;30.80;18.15;;;3.30;99.90;;;;;;5132633;27;20076;-68
2021/12/20 00:57:37;;;;;;;33.22;18.55;;;3.30;99.90;;;;;;5132940;27;20027;-68
2021/12/20 01:00:06;;;;;;;31.63;18.80;;;3.30;99.90;;;;;;5132580;27;20076;-68
2021/12/20 01:02:32;;;;;;;28.85;17.35;;;3.20;99.90;;;;;;5134044;27;20068;-68
2021/12/20 01:04:58;;;;;;;30.13;17.42;;;3.20;99.90;;;;;;5132920;27;20468;-69
2021/12/20 01:07:24;;;;;;;31.13;18.25;;;3.30;99.90;;;;;;5133016;27;20106;-68
2021/12/20 01:09:49;;;;;;;39.17;20.42;;;3.30;99.90;;;;;;5133040;27;20153;-68
2021/12/20 01:12:19;;;;;;;41.83;21.60;;;3.20;99.90;;;;;;5132523;27;20027;-68
2021/12/20 01:14:46;;;;;;;37.28;19.20;;;3.30;99.90;;;;;;5132750;27;20034;-68
2021/12/20 01:17:12;;;;;;;36.42;19.52;;;3.20;99.90;;;;;;5131817;27;20611;-68
2021/12/20 01:19:39;;;;;;;40.88;20.90;;;3.20;99.90;;;;;;5133117;27;20027;-68
2021/12/20 01:22:05;;;;;;;39.38;20.33;;;3.10;99.90;;;;;;5132084;27;20031;-70
2021/12/20 01:24:32;;;;;;;41.15;21.40;;;3.00;99.90;;;;;;5116562;27;20023;-67
2021/12/20 01:26:57;;;;;;;37.08;19.27;;;3.00;99.90;;;;;;5131811;27;20019;-68
2021/12/20 01:29:23;;;;;;;39.90;21.25;;;2.90;99.90;;;;;;5132336;27;20037;-68
2021/12/20 01:31:50;;;;;;;37.45;19.45;;;2.90;99.90;;;;;;5132717;27;20031;-68
2021/12/20 01:34:15;;;;;;;42.03;20.85;;;2.80;99.90;;;;;;5131915;27;20031;-68
2021/12/20 01:36:42;;;;;;;42.72;20.67;;;2.80;99.90;;;;;;5132735;27;20031;-68
2021/12/20 01:39:08;;;;;;;46.13;22.55;;;2.80;99.90;;;;;;5132038;27;20027;-68
2021/12/20 01:41:40;;;;;;;44.83;21.98;;;2.70;99.90;;;;;;5132630;27;20027;-68
2021/12/20 01:44:05;;;;;;;43.15;20.30;;;2.70;99.90;;;;;;5132021;27;20023;-68
2021/12/20 01:46:31;;;;;;;44.58;21.23;;;2.70;99.90;;;;;;5131340;27;20051;-68
2021/12/20 01:48:58;;;;;;;42.88;21.88;;;2.70;99.90;;;;;;5132208;27;20039;-69
2021/12/20 01:51:45;;;;;;;43.55;22.48;;;2.70;99.90;;;;;;5132588;27;20029;-68
2021/12/20 01:54:10;;;;;;;43.80;20.77;;;2.60;99.90;;;;;;5131434;27;20038;-68
2021/12/20 01:56:40;;;;;;;41.65;20.42;;;2.50;99.90;;;;;;5131653;27;20027;-68
2021/12/20 01:59:07;;;;;;;47.83;21.73;;;2.50;99.90;;;;;;5131956;27;20355;-68
2021/12/20 02:01:33;;;;;;;43.03;21.13;;;2.50;99.90;;;;;;5132598;27;20750;-68
2021/12/20 02:04:02;;;;;;;45.90;21.88;;;2.50;99.90;;;;;;5131664;28;20035;-68
2021/12/20 02:06:35;;;;;;;49.30;22.77;;;2.40;99.90;;;;;;5132334;27;20031;-68
2021/12/20 02:09:09;;;;;;;44.17;21.35;;;2.50;99.90;;;;;;5132023;27;20026;-69
2021/12/20 02:11:37;;;;;;;38.58;20.60;;;2.40;99.90;;;;;;5132346;27;20028;-68
2021/12/20 02:14:04;;;;;;;41.78;21.10;;;2.40;99.90;;;;;;5130898;28;20126;-68
2021/12/20 02:16:30;;;;;;;39.10;20.00;;;2.40;99.90;;;;;;5132006;28;20042;-68
2021/12/20 02:18:56;;;;;;;43.13;21.10;;;2.40;99.90;;;;;;5131221;28;20114;-69
2021/12/20 02:21:22;;;;;;;38.60;20.10;;;2.50;99.90;;;;;;5131691;28;20035;-68
2021/12/20 02:23:48;;;;;;;44.25;22.48;;;2.50;99.90;;;;;;5132225;27;20038;-68
2021/12/20 02:26:18;;;;;;;43.42;21.40;;;2.50;99.90;;;;;;5126942;28;20088;-68
2021/12/20 02:28:46;;;;;;;37.80;20.10;;;2.50;99.90;;;;;;5132162;28;20027;-68
2021/12/20 02:38:59;;;;;;;37.08;19.73;;;2.60;99.90;;;;;;5131348;28;20110;-69
2021/12/20 02:41:32;;;;;;;37.72;20.35;;;2.50;99.90;;;;;;5132053;28;20027;-68
2021/12/20 02:44:04;;;;;;;37.63;19.83;;;2.60;99.90;;;;;;5131182;28;20067;-69
2021/12/20 02:49:28;;;;;;;34.78;19.02;;;2.60;99.90;;;;;;5131009;28;20036;-68
2021/12/20 02:52:00;;;;;;;37.83;19.10;;;2.60;99.90;;;;;;5111223;28;20091;-69
2021/12/20 02:54:26;;;;;;;34.30;18.60;;;2.60;99.90;;;;;;5132195;27;20110;-68
2021/12/20 02:56:51;;;;;;;39.92;21.25;;;2.60;99.90;;;;;;5130982;27;20511;-68
2021/12/20 02:59:19;;;;;;;37.95;19.60;;;2.60;99.90;;;;;;5134296;27;20521;-68
2021/12/20 03:01:48;;;;;;;42.28;20.58;;;2.60;99.90;;;;;;5135743;27;20023;-68
2021/12/20 03:04:14;;;;;;;39.83;20.38;;;2.60;99.90;;;;;;5134867;27;20428;-68
2021/12/20 03:06:44;;;;;;;43.20;21.38;;;2.60;99.90;;;;;;5135745;27;20509;-68
2021/12/20 03:09:14;;;;;;;40.10;20.87;;;2.60;99.90;;;;;;5134420;27;20475;-68
2021/12/20 03:11:41;;;;;;;44.22;21.73;;;2.50;99.90;;;;;;5135670;27;20015;-68
2021/12/20 03:14:18;;;;;;;41.92;20.67;;;2.50;99.90;;;;;;5133767;27;20019;-68
2021/12/20 03:16:44;;;;;;;39.55;20.05;;;2.60;99.90;;;;;;5133777;27;20038;-68
2021/12/20 03:19:10;;;;;;;41.53;20.40;;;2.60;99.90;;;;;;5133337;27;20024;-68
2021/12/20 03:21:36;;;;;;;42.35;20.90;;;2.60;99.90;;;;;;5134135;27;20027;-68
2021/12/20 03:24:02;;;;;;;44.65;21.17;;;2.70;99.90;;;;;;5133542;27;20031;-68
2021/12/20 03:26:28;;;;;;;42.65;21.30;;;2.60;99.90;;;;;;5133468;27;20027;-68
2021/12/20 03:28:53;;;;;;;42.08;20.63;;;2.70;99.90;;;;;;5133870;27;20030;-68
2021/12/20 03:31:19;;;;;;;39.53;20.15;;;2.60;99.90;;;;;;5132817;27;20079;-68
2021/12/20 03:33:45;;;;;;;41.63;19.98;;;2.60;99.90;;;;;;5135265;27;20106;-68
2021/12/20 03:36:11;;;;;;;44.05;22.25;;;2.60;99.90;;;;;;5134207;27;20108;-68
2021/12/20 03:38:37;;;;;;;46.65;21.00;;;2.50;99.90;;;;;;5134780;27;20031;-69
2021/12/20 03:41:02;;;;;;;39.75;19.85;;;2.50;99.90;;;;;;5134216;27;20035;-68
2021/12/20 03:43:31;;;;;;;40.33;19.95;;;2.50;99.90;;;;;;5134521;27;20035;-68
2021/12/20 03:45:58;;;;;;;44.58;20.52;;;2.50;99.90;;;;;;5134636;27;20050;-69
2021/12/20 03:48:25;;;;;;;44.40;20.25;;;2.50;99.90;;;;;;5134690;27;20072;-68
2021/12/20 03:50:51;;;;;;;44.90;21.13;;;2.50;99.90;;;;;;5134829;27;20027;-68
2021/12/20 03:53:16;;;;;;;45.83;20.98;;;2.40;99.90;;;;;;5133901;27;20063;-69
2021/12/20 03:55:42;;;;;;;53.17;23.30;;;2.40;99.90;;;;;;5117875;27;20051;-68
2021/12/20 03:58:08;;;;;;;49.45;22.10;;;2.30;99.90;;;;;;5133266;27;20027;-69
2021/12/20 04:00:33;;;;;;;53.15;22.83;;;2.30;99.90;;;;;;5134434;27;20375;-69
2021/12/20 04:03:00;;;;;;;46.72;22.75;;;2.20;99.90;;;;;;5133990;27;20383;-70
2021/12/20 04:05:26;;;;;;;48.53;22.60;;;2.20;99.90;;;;;;5134987;27;20500;-69
2021/12/20 04:07:52;;;;;;;55.30;23.90;;;2.20;99.90;;;;;;5134689;27;20027;-69
2021/12/20 04:10:17;;;;;;;50.05;22.50;;;2.10;99.90;;;;;;5133394;27;20019;-69
2021/12/20 04:12:43;;;;;;;48.00;22.05;;;2.20;99.90;;;;;;5133703;27;20144;-70
2021/12/20 04:15:09;;;;;;;52.08;22.60;;;2.10;99.90;;;;;;5133395;27;20039;-70
2021/12/20 04:17:35;;;;;;;52.47;24.02;;;2.20;99.90;;;;;;5134360;27;20106;-69
2021/12/20 04:20:01;;;;;;;55.42;25.13;;;2.10;99.90;;;;;;5133588;27;20080;-70
2021/12/20 04:22:27;;;;;;;52.88;23.80;;;2.20;99.90;;;;;;5133939;27;20042;-69
2021/12/20 04:24:53;;;;;;;50.00;24.20;;;2.20;99.90;;;;;;5134256;27;20034;-69
2021/12/20 04:27:18;;;;;;;55.58;25.23;;;2.20;99.90;;;;;;5133183;27;20023;-69
2021/12/20 04:29:44;;;;;;;49.55;23.48;;;2.20;99.90;;;;;;5133904;27;20027;-69
2021/12/20 04:32:10;;;;;;;53.50;22.80;;;2.20;99.90;;;;;;5132675;27;20031;-69
2021/12/20 04:34:35;;;;;;;54.08;23.10;;;2.20;99.90;;;;;;5134426;27;20023;-69
2021/12/20 04:37:03;;;;;;;47.58;21.90;;;2.20;99.90;;;;;;5132601;27;20114;-69
2021/12/20 04:39:31;;;;;;;47.92;20.98;;;2.20;99.90;;;;;;5133732;27;20054;-68
2021/12/20 04:41:57;;;;;;;50.45;23.70;;;2.20;99.90;;;;;;5133730;27;20379;-69
2021/12/20 04:44:23;;;;;;;51.40;23.13;;;2.20;99.90;;;;;;5131927;27;20188;-69
2021/12/20 04:46:50;;;;;;;46.25;20.85;;;2.30;99.90;;;;;;5133244;27;20071;-68
2021/12/20 04:49:16;;;;;;;49.00;22.17;;;2.20;99.90;;;;;;5133131;27;20096;-69
2021/12/20 04:51:42;;;;;;;54.55;24.40;;;2.20;99.90;;;;;;5133551;27;20034;-69
2021/12/20 04:54:08;;;;;;;50.33;21.90;;;2.30;99.90;;;;;;5132899;27;20035;-69
2021/12/20 04:56:33;;;;;;;49.22;22.30;;;2.30;99.90;;;;;;5133403;27;20031;-69
2021/12/20 04:58:59;;;;;;;54.20;23.77;;;2.30;99.90;;;;;;5133508;27;20019;-70
2021/12/20 05:01:25;;;;;;;56.88;23.42;;;2.30;99.90;;;;;;5132456;27;20027;-69
2021/12/20 05:03:50;;;;;;;52.00;23.23;;;2.30;99.90;;;;;;5133523;27;20023;-69
2021/12/20 05:06:16;;;;;;;55.80;23.40;;;2.30;99.90;;;;;;5132478;27;20507;-69
2021/12/20 05:08:48;;;;;;;48.80;22.80;;;2.30;99.90;;;;;;5132206;27;20084;-69
2021/12/20 05:11:14;;;;;;;53.10;21.85;;;2.30;99.90;;;;;;5128656;27;20030;-69
2021/12/20 05:13:40;;;;;;;49.78;22.20;;;2.30;99.90;;;;;;5132156;27;20036;-69
2021/12/20 05:16:05;;;;;;;48.88;22.65;;;2.30;99.90;;;;;;5131271;27;20465;-69
2021/12/20 05:18:31;;;;;;;58.60;24.73;;;2.30;99.90;;;;;;5131732;27;20056;-68
2021/12/20 05:20:57;;;;;;;50.75;22.92;;;2.30;99.90;;;;;;5130496;27;20039;-69
2021/12/20 05:23:23;;;;;;;53.53;23.63;;;2.30;99.90;;;;;;5131114;27;20464;-69
2021/12/20 05:25:49;;;;;;;47.05;20.98;;;2.30;99.90;;;;;;5131598;27;20024;-69
2021/12/20 05:28:15;;;;;;;50.65;21.60;;;2.30;99.90;;;;;;5131192;27;20098;-69
2021/12/20 05:30:40;;;;;;;48.58;19.92;;;2.30;99.90;;;;;;5131437;27;20019;-69
2021/12/20 05:33:06;;;;;;;52.97;23.25;;;2.30;99.90;;;;;;5130814;27;20489;-69
2021/12/20 05:35:32;;;;;;;53.63;22.23;;;2.30;99.90;;;;;;5131213;27;20023;-69
2021/12/20 05:37:58;;;;;;;50.25;22.60;;;2.40;99.90;;;;;;5131388;27;20059;-69
2021/12/20 05:40:25;;;;;;;53.33;22.90;;;2.40;99.90;;;;;;5131503;27;20023;-68
2021/12/20 05:42:51;;;;;;;48.30;21.75;;;2.40;99.90;;;;;;5114806;27;20114;-69
2021/12/20 05:45:18;;;;;;;50.83;21.95;;;2.40;99.90;;;;;;5130646;27;20019;-69
2021/12/20 05:47:44;;;;;;;42.90;19.80;;;2.50;99.90;;;;;;5114516;28;20039;-68
2021/12/20 05:50:13;;;;;;;49.13;22.85;;;2.40;99.90;;;;;;5130333;27;20038;-68
2021/12/20 05:52:39;;;;;;;50.85;22.10;;;2.40;99.90;;;;;;5114851;27;20451;-69
2021/12/20 05:55:06;;;;;;;50.75;22.13;;;2.50;99.90;;;;;;5129859;27;20050;-69
2021/12/20 05:57:32;;;;;;;54.42;24.27;;;2.50;99.90;;;;;;5131290;27;20031;-69
2021/12/20 05:59:59;;;;;;;46.50;22.25;;;2.50;99.90;;;;;;5130895;27;20023;-69
2021/12/20 06:02:25;;;;;;;52.50;24.05;;;2.50;99.90;;;;;;5130838;28;20030;-69
2021/12/20 06:04:51;;;;;;;57.25;24.55;;;2.50;99.90;;;;;;5130765;28;20031;-68
2021/12/20 06:07:21;;;;;;;50.90;23.08;;;2.50;99.90;;;;;;5130293;28;20031;-69
2021/12/20 06:09:47;;;;;;;54.33;23.08;;;2.40;99.90;;;;;;5130923;28;20076;-69
2021/12/20 06:12:13;;;;;;;56.55;26.35;;;2.40;99.90;;;;;;5129789;28;20030;-69
2021/12/20 06:14:39;;;;;;;52.47;24.05;;;2.40;99.90;;;;;;5131268;28;20027;-69
2021/12/20 06:17:06;;;;;;;53.38;22.90;;;2.40;99.90;;;;;;5130011;28;20392;-70
2021/12/20 06:19:32;;;;;;;54.80;25.17;;;2.40;99.90;;;;;;5112868;28;20031;-69
2021/12/20 06:21:57;;;;;;;55.30;24.65;;;2.40;99.90;;;;;;5131369;28;20040;-69
2021/12/20 06:24:24;;;;;;;57.53;24.63;;;2.30;99.90;;;;;;5131244;28;20421;-68
2021/12/20 06:26:50;;;;;;;52.05;22.08;;;2.30;99.90;;;;;;5132380;28;20034;-69
2021/12/20 06:29:17;;;;;;;57.35;25.75;;;2.30;99.90;;;;;;5131527;28;20110;-69
2021/12/20 06:31:43;;;;;;;57.20;23.00;;;2.40;99.90;;;;;;5132848;27;20088;-68
2021/12/20 06:34:09;;;;;;;50.53;21.45;;;2.40;99.90;;;;;;5135417;27;20472;-68
2021/12/20 06:36:35;;;;;;;42.35;18.40;;;2.40;99.90;;;;;;5135197;27;20106;-68
2021/12/20 06:39:02;;;;;;;43.50;19.05;;;2.40;99.90;;;;;;5136058;27;20471;-72
2021/12/20 06:41:27;;;;;;;48.85;19.65;;;2.40;99.90;;;;;;5136055;27;20030;-68
2021/12/20 06:43:53;;;;;;;43.50;19.00;;;2.40;99.90;;;;;;5136075;27;20027;-71
2021/12/20 06:46:20;;;;;;;41.53;18.80;;;2.40;99.90;;;;;;5117426;27;20114;-68
2021/12/20 06:48:46;;;;;;;41.17;20.05;;;2.50;99.90;;;;;;5124914;27;20032;-71
2021/12/20 06:51:11;;;;;;;41.95;19.92;;;2.40;99.90;;;;;;5134591;27;20037;-68
2021/12/20 06:53:37;;;;;;;46.83;20.63;;;2.40;99.90;;;;;;5135624;27;20057;-68
2021/12/20 06:56:03;;;;;;;39.33;18.50;;;2.50;99.90;;;;;;5135351;27;20031;-70
2021/12/20 06:58:29;;;;;;;40.33;19.35;;;2.50;99.90;;;;;;5135676;27;20497;-70
2021/12/20 07:00:55;;;;;;;44.20;20.13;;;2.40;99.90;;;;;;5135937;27;20051;-68
2021/12/20 07:03:22;;;;;;;45.45;19.20;;;2.40;99.90;;;;;;5134602;27;20588;-67
2021/12/20 07:05:48;;;;;;;46.47;20.88;;;2.50;99.90;;;;;;5135349;27;20027;-67
2021/12/20 07:08:18;;;;;;;51.97;22.92;;;2.50;99.90;;;;;;5134447;27;20033;-76
2021/12/20 07:10:43;;;;;;;48.90;22.73;;;2.50;99.90;;;;;;5132747;27;20143;-68
2021/12/20 07:13:10;;;;;;;45.85;21.88;;;2.50;99.90;;;;;;5134585;27;20125;-68
2021/12/20 07:15:36;;;;;;;46.30;21.52;;;2.60;99.90;;;;;;5139353;27;20038;-68
2021/12/20 07:18:03;;;;;;;43.50;20.42;;;2.60;99.90;;;;;;5133199;27;20036;-68
2021/12/20 07:20:28;;;;;;;45.35;20.90;;;2.60;99.90;;;;;;5134756;27;20033;-72
2021/12/20 07:22:54;;;;;;;46.90;20.58;;;2.60;99.90;;;;;;5134087;27;20394;-72
2021/12/20 07:25:21;;;;;;;47.80;22.35;;;2.60;99.90;;;;;;5134165;27;20031;-72
2021/12/20 07:27:48;;;;;;;45.03;20.65;;;2.60;99.90;;;;;;5135204;27;20068;-74
2021/12/20 07:30:14;;;;;;;42.10;19.85;;;2.60;99.90;;;;;;5134447;27;20023;-74
2021/12/20 07:32:40;;;;;;;46.03;19.85;;;2.60;99.90;;;;;;5134622;27;20118;-73
2021/12/20 07:35:06;;;;;;;46.05;21.17;;;2.60;99.90;;;;;;5134064;27;20114;-79
2021/12/20 07:37:32;;;;;;;45.38;20.27;;;2.60;99.90;;;;;;5130526;27;20038;-72
2021/12/20 07:39:57;;;;;;;43.00;20.23;;;2.60;99.90;;;;;;5134069;27;20024;-71
2021/12/20 07:42:23;;;;;;;45.20;20.92;;;2.60;99.90;;;;;;5133303;27;20069;-71
2021/12/20 07:44:49;;;;;;;40.80;19.80;;;2.70;99.90;;;;;;5134043;27;20771;-72
2021/12/20 07:47:15;;;;;;;38.88;19.55;;;2.70;99.90;;;;;;5132953;27;20055;-72
2021/12/20 07:49:40;;;;;;;39.35;18.92;;;2.80;99.90;;;;;;5134680;27;20046;-72
2021/12/20 07:52:06;;;;;;;42.05;20.35;;;2.80;99.90;;;;;;5133443;27;20027;-72
2021/12/20 07:54:32;;;;;;;36.58;18.80;;;2.90;99.90;;;;;;5134268;27;20031;-72
2021/12/20 07:56:58;;;;;;;37.42;19.02;;;2.90;99.90;;;;;;5134738;27;20106;-72
2021/12/20 07:59:24;;;;;;;35.03;18.08;;;2.90;99.90;;;;;;5133193;27;20242;-72
2021/12/20 08:01:50;;;;;;;35.35;18.13;;;2.90;99.90;;;;;;5134715;27;20530;-72
2021/12/20 08:04:16;;;;;;;38.05;19.25;;;2.90;99.90;;;;;;5132366;27;20038;-72
2021/12/20 08:06:45;;;;;;;36.95;19.00;;;2.90;99.90;;;;;;5133216;27;20019;-72
2021/12/20 08:09:11;;;;;;;39.80;20.30;;;2.90;99.90;;;;;;5131717;27;20038;-72
2021/12/20 08:11:37;;;;;;;37.92;18.98;;;3.00;99.90;;;;;;5125623;27;20027;-72
2021/12/20 08:14:04;;;;;;;35.25;18.38;;;3.00;99.90;;;;;;5134249;27;20027;-72
2021/12/20 08:16:30;;;;;;;32.92;17.88;;;3.00;99.90;;;;;;5133198;27;20467;-72
2021/12/20 08:18:55;;;;;;;31.65;16.80;;;3.00;99.90;;;;;;5134110;27;20038;-72
2021/12/20 08:21:21;;;;;;;29.95;16.83;;;3.00;99.90;;;;;;5133460;27;20566;-72
2021/12/20 08:23:48;;;;;;;31.70;16.55;;;3.00;99.90;;;;;;5134367;27;20106;-72
2021/12/20 08:26:14;;;;;;;32.15;16.75;;;3.10;99.90;;;;;;5133188;27;20028;-72
2021/12/20 08:28:40;;;;;;;33.28;17.58;;;3.10;99.90;;;;;;5134319;27;20080;-72
2021/12/20 08:31:07;;;;;;;27.60;15.65;;;3.10;99.90;;;;;;5133187;27;20111;-72
2021/12/20 08:33:33;;;;;;;30.45;15.52;;;3.10;99.90;;;;;;5133730;27;20151;-73
2021/12/20 08:36:04;;;;;;;31.13;16.35;;;3.20;99.90;;;;;;5133290;27;20027;-72
2021/12/20 08:38:30;;;;;;;36.58;18.77;;;3.20;99.90;;;;;;5133229;27;20102;-72
2021/12/20 08:40:56;;;;;;;37.00;18.27;;;3.30;99.90;;;;;;5117527;27;20176;-72
2021/12/20 08:43:22;;;;;;;34.78;18.42;;;3.30;99.90;;;;;;5132421;27;20054;-72
2021/12/20 08:45:48;;;;;;;36.28;18.60;;;3.40;99.90;;;;;;5133431;27;20030;-72
2021/12/20 08:48:14;;;;;;;36.70;19.70;;;3.40;99.90;;;;;;5133097;27;20085;-72
2021/12/20 08:50:40;;;;;;;34.40;19.23;;;3.50;99.90;;;;;;5121726;27;20065;-72
2021/12/20 08:53:07;;;;;;;35.90;18.95;;;3.60;99.90;;;;;;5134217;27;21521;-72
2021/12/20 08:55:33;;;;;;;36.33;18.13;;;3.60;99.90;;;;;;5132547;27;20043;-71
2021/12/20 08:57:59;;;;;;;38.55;20.10;;;3.70;99.90;;;;;;5133265;27;20361;-71
2021/12/20 09:00:29;;;;;;;39.30;18.55;;;3.60;99.90;;;;;;5132581;27;20027;-71
2021/12/20 09:02:55;;;;;;;36.53;19.02;;;3.60;99.90;;;;;;5125509;27;20024;-71
2021/12/20 09:05:22;;;;;;;38.50;19.33;;;3.60;99.90;;;;;;5132696;27;20039;-71
2021/12/20 09:07:48;;;;;;;37.50;19.45;;;3.70;99.90;;;;;;5132749;27;20024;-72
2021/12/20 09:10:15;;;;;;;37.35;19.15;;;3.70;99.90;;;;;;5130403;27;21379;-72
2021/12/20 09:12:42;;;;;;;37.10;20.10;;;3.70;99.90;;;;;;5131420;27;20055;-73
2021/12/20 09:15:16;;;;;;;34.60;19.02;;;3.70;99.90;;;;;;5132247;27;20034;-72
2021/12/20 09:17:44;;;;;;;35.92;18.83;;;3.80;99.90;;;;;;5129544;27;20437;-72
2021/12/20 09:20:10;;;;;;;33.50;17.73;;;3.80;99.90;;;;;;5132057;27;20042;-72
2021/12/20 09:22:48;;;;;;;38.67;20.58;;;3.90;99.90;;;;;;5133088;27;20032;-71
2021/12/20 09:25:14;;;;;;;34.60;17.58;;;3.90;99.90;;;;;;5131693;27;20117;-72
2021/12/20 09:27:40;;;;;;;36.92;19.73;;;3.90;99.90;;;;;;5133034;27;20408;-72
2021/12/20 09:30:06;;;;;;;37.40;18.83;;;3.90;99.90;;;;;;5133218;27;20027;-72
2021/12/20 09:32:32;;;;;;;37.22;18.83;;;3.90;99.90;;;;;;5131748;27;20465;-70
2021/12/20 09:34:58;;;;;;;35.80;18.92;;;3.90;99.90;;;;;;5132771;27;20088;-71
2021/12/20 09:37:24;;;;;;;31.85;18.05;;;4.00;99.90;;;;;;5131809;27;20031;-70
2021/12/20 09:39:53;;;;;;;37.63;19.40;;;4.00;99.90;;;;;;5131881;27;20034;-70
2021/12/20 09:42:19;;;;;;;39.30;20.30;;;4.00;99.90;;;;;;5124300;27;20039;-71
2021/12/20 09:44:45;;;;;;;42.10;22.17;;;4.00;99.90;;;;;;5132681;27;20070;-71
2021/12/20 09:47:11;;;;;;;46.53;22.05;;;4.00;99.90;;;;;;5131536;27;20054;-71
2021/12/20 09:49:37;;;;;;;37.22;18.90;;;4.10;99.90;;;;;;5130845;27;20048;-71
2021/12/20 09:52:03;;;;;;;42.65;20.15;;;4.10;99.90;;;;;;5132088;27;20360;-71
2021/12/20 09:54:29;;;;;;;41.15;21.58;;;4.10;99.90;;;;;;5131543;27;20472;-72
2021/12/20 09:56:57;;;;;;;40.80;20.73;;;4.10;99.90;;;;;;5132794;27;20042;-71
2021/12/20 09:59:26;;;;;;;40.55;20.55;;;4.20;99.90;;;;;;5131480;27;20041;-71
2021/12/20 10:01:53;;;;;;;40.72;20.15;;;4.20;99.90;;;;;;5132699;27;20045;-71
2021/12/20 10:04:21;;;;;;;40.92;20.95;;;4.30;99.90;;;;;;5131576;27;20031;-71
2021/12/20 10:06:56;;;;;;;43.17;21.33;;;4.30;99.90;;;;;;5131307;27;20073;-70
2021/12/20 10:09:27;;;;;;;40.03;20.80;;;4.40;99.90;;;;;;5132073;27;20042;-71
2021/12/20 10:12:16;;;;;;;40.13;20.95;;;4.60;99.90;;;;;;5131364;27;20380;-71
2021/12/20 10:14:56;;;;;;;40.08;20.92;;;4.60;99.90;;;;;;5125950;28;20067;-69
2021/12/20 10:17:24;;;;;;;44.15;21.83;;;4.70;99.90;;;;;;5131702;27;20095;-71
2021/12/20 10:19:51;;;;;;;44.25;21.38;;;4.80;99.90;;;;;;5131967;27;20365;-69
2021/12/20 10:22:28;;;;;;;41.90;21.80;;;4.90;99.90;;;;;;5131599;27;20383;-69
2021/12/20 10:24:57;;;;;;;41.38;21.67;;;5.00;99.90;;;;;;5121296;28;20027;-70
2021/12/20 10:27:34;;;;;;;43.47;21.23;;;5.10;99.90;;;;;;5131253;27;20038;-69
2021/12/20 10:30:18;;;;;;;40.10;20.67;;;5.20;99.90;;;;;;5131666;27;20039;-69
2021/12/20 10:32:44;;;;;;;34.72;19.40;;;5.20;99.90;;;;;;5129063;28;20487;-70
2021/12/20 10:35:25;;;;;;;39.20;20.85;;;5.30;99.90;;;;;;5131936;27;20031;-70
2021/12/20 10:37:57;;;;;;;38.75;18.80;;;5.30;99.90;;;;;;5131150;28;20387;-71
2021/12/20 10:40:23;;;;;;;36.05;19.77;;;5.40;99.90;;;;;;5130705;28;20035;-70
2021/12/20 10:42:49;;;;;;;37.90;18.80;;;5.40;99.90;;;;;;5131095;28;20378;-70
2021/12/20 10:45:20;;;;;;;33.60;18.90;;;5.30;99.90;;;;;;5113434;28;20038;-70
2021/12/20 10:47:46;;;;;;;;;;;5.30;99.90;;;;;;5132178;27;20075;-69
2021/12/20 10:50:34;;;;;;;32.35;17.60;;;5.20;99.90;;;;;;5130804;28;20005;-70
2021/12/20 10:53:17;;;;;;;33.20;17.23;;;5.20;99.90;;;;;;5131493;28;20035;-70
2021/12/20 10:56:00;;;;;;;40.40;19.58;;;5.10;99.90;;;;;;5131138;28;20479;-69
2021/12/20 10:58:35;;;;;;;35.47;17.48;;;5.10;99.90;;;;;;5130733;27;20023;-69
2021/12/20 11:04:01;;;;;;;28.95;15.70;;;5.20;99.90;;;;;;5131316;28;20031;-71
2021/12/20 11:09:13;;;;;;;32.03;15.25;;;5.20;99.90;;;;;;5131617;28;20367;-70
2021/12/20 11:11:41;;;;;;;33.20;17.27;;;5.10;99.90;;;;;;5130602;27;20023;-70
2021/12/20 11:14:08;;;;;;;26.33;14.90;;;5.20;99.90;;;;;;5130934;27;20053;-70
2021/12/20 11:16:55;;;;;;;29.95;17.27;;;5.20;99.90;;;;;;5130186;27;20039;-71
2021/12/20 11:19:26;;;;;;;30.23;15.90;;;5.30;99.90;;;;;;5131974;27;20122;-71
2021/12/20 11:22:12;;;;;;;28.40;15.88;;;5.30;99.90;;;;;;5135173;27;20417;-71
2021/12/20 11:24:40;;;;;;;23.98;11.63;;;5.50;99.90;;;;;;5135032;27;20046;-71
2021/12/20 11:27:12;;;;;;;20.50;11.02;;;5.60;99.90;;;;;;5134190;27;20376;-72
2021/12/20 11:29:40;;;;;;;20.27;10.68;;;5.70;99.90;;;;;;5134922;27;20072;-72
2021/12/20 11:32:07;;;;;;;26.65;11.15;;;5.70;99.90;;;;;;5133944;27;20027;-71
2021/12/20 11:34:34;;;;;;;23.52;11.93;;;5.80;99.90;;;;;;5134004;27;20115;-72
2021/12/20 11:37:00;;;;;;;22.67;11.55;;;5.90;99.90;;;;;;5134647;27;20027;-72
2021/12/20 11:39:26;;;;;;;25.23;11.43;;;6.00;99.90;;;;;;5134280;27;20030;-72
2021/12/20 11:41:52;;;;;;;22.75;11.60;;;6.20;99.90;;;;;;5134245;27;20027;-72
2021/12/20 11:44:21;;;;;;;21.08;12.23;;;6.30;99.90;;;;;;5134054;27;20031;-72
2021/12/20 11:47:01;;;;;;;20.53;10.73;;;6.50;99.90;;;;;;5133473;27;20114;-72
2021/12/20 11:49:28;;;;;;;19.98;10.98;;;6.60;99.90;;;;;;5133439;27;20516;-72
2021/12/20 11:52:16;;;;;;;17.80;10.45;;;6.70;99.90;;;;;;5134500;27;20035;-72
2021/12/20 11:54:53;;;;;;;16.92;8.82;;;6.80;99.90;;;;;;5134186;27;20037;-72
2021/12/20 11:57:32;;;;;;;19.75;8.63;;;6.80;99.90;;;;;;5133148;27;20444;-72
2021/12/20 12:00:22;;;;;;;22.20;11.13;;;6.70;99.90;;;;;;5134194;27;20031;-72
2021/12/20 12:02:50;;;;;;;21.15;10.23;;;6.70;99.90;;;;;;5121148;27;20116;-72
2021/12/20 12:05:27;;;;;;;26.63;14.07;;;6.40;99.90;;;;;;5133360;27;20388;-73
2021/12/20 12:07:54;;;;;;;30.67;14.20;;;6.30;99.90;;;;;;5133499;27;20383;-72
2021/12/20 12:10:28;;;;;;;30.17;14.88;;;6.20;99.90;;;;;;5132784;27;20107;-72
2021/12/20 12:13:00;;;;;;;29.27;14.40;;;6.00;99.90;;;;;;5133173;27;20035;-72
2021/12/20 12:15:43;;;;;;;30.52;13.95;;;6.00;99.90;;;;;;5133473;27;20034;-72
2021/12/20 12:18:10;;;;;;;25.90;13.13;;;5.90;99.90;;;;;;5117688;27;20019;-72
2021/12/20 12:20:47;;;;;;;27.05;13.43;;;5.80;99.90;;;;;;5133042;27;20114;-72
2021/12/20 12:23:43;;;;;;;25.50;13.30;;;5.70;99.90;;;;;;5126693;27;20027;-72
2021/12/20 12:26:12;;;;;;;31.55;13.20;;;5.70;99.90;;;;;;5134126;27;20035;-71
2021/12/20 12:28:56;;;;;;;25.48;13.23;;;5.70;99.90;;;;;;5133347;27;20067;-73
2021/12/20 12:31:22;;;;;;;29.08;13.55;;;5.60;99.90;;;;;;5131972;27;20248;-71
2021/12/20 12:34:07;;;;;;;33.95;13.27;;;5.60;99.90;;;;;;5133582;27;20038;-77
2021/12/20 12:36:39;;;;;;;23.70;12.55;;;5.50;99.90;;;;;;5114885;27;20620;-72
2021/12/20 12:39:18;;;;;;;25.27;12.85;;;5.50;99.90;;;;;;5133815;27;20026;-71
2021/12/20 12:41:46;;;;;;;27.48;13.00;;;5.40;99.90;;;;;;5133429;27;20031;-70
2021/12/20 12:44:22;;;;;;;26.67;13.15;;;5.40;99.90;;;;;;5133003;27;20866;-71
2021/12/20 12:47:10;;;;;;;25.15;12.95;;;5.50;99.90;;;;;;5132896;27;20035;-71
2021/12/20 12:49:40;;;;;;;23.45;12.23;;;5.40;99.90;;;;;;5126407;27;20482;-70
2021/12/20 12:52:18;;;;;;;28.55;12.13;;;5.30;99.90;;;;;;5115574;27;20024;-71
2021/12/20 12:54:45;;;;;;;26.20;12.85;;;5.30;99.90;;;;;;5125749;27;20019;-70
2021/12/20 12:57:10;;;;;;;25.65;12.45;;;5.20;99.90;;;;;;5127846;27;20480;-71
2021/12/20 13:00:00;;;;;;;26.15;13.38;;;5.20;99.90;;;;;;5131542;27;20034;-70
2021/12/20 13:02:28;;;;;;;27.23;12.95;;;5.00;99.90;;;;;;5130354;27;20026;-71